createdAt,value
2018-08-19T00:03:01.766Z,15.20
2018-08-19T00:05:30.703Z,15.20
2018-08-19T00:07:59.552Z,15.30
2018-08-19T01:02:44.352Z,14.70
2018-08-19T01:05:13.189Z,14.70
2018-08-19T01:07:42.078Z,14.80
2018-08-19T02:02:55.874Z,13.80
2018-08-19T02:05:25.428Z,13.80
2018-08-19T02:08:11.208Z,14.00
2018-08-19T03:02:57.578Z,14.00
2018-08-19T03:05:26.412Z,14.00
2018-08-19T03:07:55.282Z,14.10
2018-08-19T03:10:24.154Z,14.20
2018-08-19T04:02:39.828Z,13.60
2018-08-19T04:05:08.653Z,13.70
2018-08-19T04:07:37.512Z,13.80
2018-08-19T04:10:06.645Z,14.00
2018-08-19T05:03:09.798Z,14.80
2018-08-19T05:05:38.724Z,14.90
2018-08-19T05:08:08.649Z,15.10
2018-08-19T05:10:38.509Z,15.40
2018-08-19T06:02:48.808Z,18.90
2018-08-19T06:05:17.676Z,18.80
2018-08-19T06:07:47.612Z,18.80
2018-08-19T07:03:06.255Z,20.10
2018-08-19T07:05:35.262Z,20.30
2018-08-19T07:08:04.106Z,20.60
2018-08-19T08:02:58.554Z,24.50
2018-08-19T08:05:32.994Z,24.70
2018-08-19T08:08:02.207Z,25.30
2018-08-19T09:02:47.580Z,24.50
2018-08-19T09:05:16.418Z,24.70
2018-08-19T09:07:45.284Z,25.00
2018-08-19T09:10:15.746Z,25.50
2018-08-19T10:03:17.464Z,25.80
2018-08-19T10:05:46.536Z,26.10
2018-08-19T10:08:15.590Z,26.90
2018-08-19T10:10:44.833Z,27.00
2018-08-19T11:02:42.966Z,28.00
2018-08-19T11:05:11.871Z,27.60
2018-08-19T11:07:40.964Z,27.80
2018-08-19T12:02:49.677Z,27.70
2018-08-19T12:05:18.629Z,27.80
2018-08-19T12:07:51.945Z,27.90
2018-08-19T13:02:47.457Z,27.80
2018-08-19T13:05:17.223Z,27.50
2018-08-19T13:07:46.297Z,27.60
2018-08-19T14:02:43.787Z,32.40
2018-08-19T14:05:12.712Z,32.70
2018-08-19T14:07:41.980Z,33.20
2018-08-19T14:10:12.313Z,34.00
2018-08-19T15:02:39.522Z,29.10
2018-08-19T15:05:11.299Z,28.90
2018-08-19T15:07:40.417Z,28.80
2018-08-19T16:02:59.420Z,25.60
2018-08-19T16:05:28.282Z,25.40
2018-08-19T16:07:57.174Z,25.40
2018-08-19T16:10:26.116Z,25.40
2018-08-19T17:02:41.516Z,22.10
2018-08-19T17:05:28.914Z,21.90
2018-08-19T17:07:57.970Z,21.90
2018-08-19T18:02:44.337Z,19.20
2018-08-19T18:05:13.227Z,19.00
2018-08-19T18:07:42.283Z,19.10
2018-08-19T18:10:13.317Z,19.20
2018-08-19T19:03:13.692Z,17.10
2018-08-19T19:05:43.839Z,17.00
2018-08-19T19:08:15.339Z,17.10
2018-08-19T20:02:37.161Z,15.90
2018-08-19T20:05:11.452Z,15.90
2018-08-19T20:07:40.512Z,16.00
2018-08-19T21:02:39.968Z,15.40
2018-08-19T21:05:08.870Z,15.30
2018-08-19T21:07:37.702Z,15.40
2018-08-19T22:03:44.388Z,14.70
2018-08-19T22:06:13.277Z,14.70
2018-08-19T22:08:42.138Z,15.00
2018-08-19T23:02:37.504Z,14.20
2018-08-19T23:05:06.371Z,14.20
2018-08-19T23:07:35.233Z,14.40
2018-08-19T23:10:05.479Z,14.60
